createdAt,value
2019-03-30T00:00:39.155Z,52.67
2019-03-30T00:03:11.333Z,57.17
2019-03-30T00:05:42.344Z,54.33
2019-03-30T00:08:13.543Z,50.53
2019-03-30T00:10:44.815Z,51.33
2019-03-30T00:13:15.912Z,53.17
2019-03-30T00:15:47.203Z,56.77
2019-03-30T00:18:18.556Z,54.37
2019-03-30T00:20:50.818Z,51.30
2019-03-30T00:23:21.813Z,52.23
2019-03-30T00:25:52.840Z,59.47
2019-03-30T00:28:23.947Z,55.77
2019-03-30T00:30:55.007Z,57.07
2019-03-30T00:33:26.359Z,55.10
2019-03-30T00:35:57.435Z,59.67
2019-03-30T00:38:29.468Z,58.50
2019-03-30T00:41:00.808Z,54.53
2019-03-30T00:43:32.045Z,54.60
2019-03-30T00:46:03.137Z,54.40
2019-03-30T00:48:34.186Z,58.73
2019-03-30T00:51:05.261Z,58.83
2019-03-30T00:53:36.464Z,58.10
2019-03-30T00:56:07.531Z,55.50
2019-03-30T00:58:38.605Z,56.97
2019-03-30T01:01:09.671Z,57.97
2019-03-30T01:03:40.727Z,61.57
2019-03-30T01:06:11.918Z,52.90
2019-03-30T01:08:43.024Z,55.90
2019-03-30T01:11:14.228Z,52.53
2019-03-30T01:13:45.283Z,59.07
2019-03-30T01:16:16.447Z,56.30
2019-03-30T01:18:47.454Z,58.27
2019-03-30T01:21:18.559Z,55.80
2019-03-30T01:23:49.707Z,56.40
2019-03-30T01:26:20.826Z,51.60
2019-03-30T01:28:51.962Z,61.63
2019-03-30T01:31:23.168Z,62.00
2019-03-30T01:33:54.409Z,63.50
2019-03-30T01:36:25.551Z,60.70
2019-03-30T01:38:56.457Z,58.70
2019-03-30T01:41:27.528Z,62.77
2019-03-30T01:43:58.707Z,56.27
2019-03-30T01:46:29.772Z,54.67
2019-03-30T01:49:00.863Z,57.67
2019-03-30T01:51:32.044Z,56.60
2019-03-30T01:54:03.142Z,61.03
2019-03-30T01:56:34.204Z,51.27
2019-03-30T01:59:05.256Z,61.03
2019-03-30T02:01:37.707Z,57.83
2019-03-30T02:04:08.971Z,62.13
2019-03-30T02:06:40.082Z,61.33
2019-03-30T02:09:11.270Z,57.77
2019-03-30T02:11:42.414Z,55.57
2019-03-30T02:14:13.544Z,63.47
2019-03-30T02:16:44.549Z,50.93
2019-03-30T02:19:15.682Z,63.97
2019-03-30T02:21:46.694Z,54.90
2019-03-30T02:24:17.767Z,57.60
2019-03-30T02:26:49.004Z,54.07
2019-03-30T02:29:20.061Z,56.90
2019-03-30T02:31:51.098Z,63.00
2019-03-30T02:34:22.170Z,53.27
2019-03-30T02:36:53.363Z,55.37
2019-03-30T02:39:24.323Z,56.63
2019-03-30T02:41:55.278Z,51.53
2019-03-30T02:44:26.367Z,50.27
2019-03-30T02:46:57.320Z,51.27
2019-03-30T02:49:28.454Z,60.47
2019-03-30T02:51:59.515Z,60.50
2019-03-30T02:54:30.538Z,64.50
2019-03-30T02:57:01.522Z,50.80
2019-03-30T02:59:32.566Z,61.80
2019-03-30T03:02:03.773Z,56.90
2019-03-30T03:04:34.908Z,49.07
2019-03-30T03:07:06.579Z,52.97
2019-03-30T03:09:37.733Z,49.60
2019-03-30T03:12:13.027Z,53.77
2019-03-30T03:14:44.616Z,46.83
2019-03-30T03:17:16.250Z,52.17
2019-03-30T03:19:47.744Z,54.77
2019-03-30T03:22:20.743Z,46.47
2019-03-30T03:24:52.154Z,55.23
2019-03-30T03:27:23.782Z,46.83
2019-03-30T03:29:55.082Z,49.73
2019-03-30T03:32:26.465Z,55.33
2019-03-30T03:34:57.653Z,55.03
2019-03-30T03:37:44.733Z,59.83
2019-03-30T03:40:05.033Z,67.20
2019-03-30T03:42:39.280Z,55.07
2019-03-30T03:45:11.555Z,53.47
2019-03-30T03:47:46.156Z,49.70
2019-03-30T03:50:42.582Z,53.83
2019-03-30T03:53:16.614Z,52.07
2019-03-30T03:55:50.867Z,48.87
2019-03-30T03:58:25.220Z,51.40
2019-03-30T04:00:58.780Z,52.47
2019-03-30T04:03:32.910Z,51.47
2019-03-30T04:06:07.318Z,53.60
2019-03-30T04:08:39.645Z,50.47
2019-03-30T04:11:13.884Z,72.83
2019-03-30T04:13:47.442Z,58.87
2019-03-30T04:16:18.779Z,67.87
2019-03-30T04:18:49.918Z,74.40
2019-03-30T04:21:21.403Z,63.87
2019-03-30T04:23:55.742Z,55.63
2019-03-30T04:26:26.849Z,65.33
2019-03-30T04:28:58.824Z,54.60
2019-03-30T04:31:33.254Z,63.73
2019-03-30T04:34:04.436Z,60.07
2019-03-30T04:36:35.639Z,66.07
2019-03-30T04:39:07.618Z,61.00
2019-03-30T04:41:41.412Z,77.50
2019-03-30T04:44:15.069Z,69.57
2019-03-30T04:46:46.024Z,50.70
2019-03-30T04:49:20.941Z,48.03
2019-03-30T04:51:57.674Z,57.20
2019-03-30T04:54:25.438Z,55.57
2019-03-30T04:56:56.555Z,52.73
2019-03-30T04:59:28.783Z,58.43
2019-03-30T05:02:00.618Z,57.70
2019-03-30T05:04:32.279Z,56.70
2019-03-30T05:07:03.419Z,53.37
2019-03-30T05:09:37.488Z,58.27
2019-03-30T05:12:09.007Z,58.33
2019-03-30T05:14:40.579Z,48.27
2019-03-30T05:17:12.380Z,58.73
2019-03-30T05:19:43.858Z,52.83
2019-03-30T05:22:16.743Z,61.37
2019-03-30T05:24:48.290Z,59.13
2019-03-30T05:27:20.133Z,68.93
2019-03-30T05:29:51.680Z,68.53
2019-03-30T05:32:24.043Z,62.03
2019-03-30T05:34:57.005Z,62.07
2019-03-30T05:37:29.721Z,61.17
2019-03-30T05:40:01.098Z,61.00
2019-03-30T05:42:32.503Z,68.87
2019-03-30T05:45:03.970Z,73.30
2019-03-30T05:47:35.782Z,67.33
2019-03-30T05:50:08.450Z,78.23
2019-03-30T05:52:39.634Z,61.23
2019-03-30T05:55:10.964Z,57.83
2019-03-30T05:57:42.234Z,63.93
2019-03-30T06:00:16.529Z,55.30
2019-03-30T06:02:52.012Z,72.67
2019-03-30T06:05:25.100Z,82.57
2019-03-30T06:07:56.178Z,72.27
2019-03-30T06:10:27.558Z,68.97
2019-03-30T06:12:58.744Z,66.93
2019-03-30T06:15:35.175Z,62.33
2019-03-30T06:18:06.773Z,65.80
2019-03-30T06:20:37.943Z,77.53
2019-03-30T06:23:09.584Z,64.90
2019-03-30T06:25:41.281Z,64.10
2019-03-30T06:28:15.770Z,66.87
2019-03-30T06:30:47.242Z,58.40
2019-03-30T06:33:20.938Z,55.20
2019-03-30T06:35:56.045Z,59.63
2019-03-30T06:38:27.862Z,57.00
2019-03-30T06:40:59.396Z,60.30
2019-03-30T06:43:31.355Z,57.13
2019-03-30T06:46:05.880Z,55.93
2019-03-30T06:48:37.295Z,51.83
2019-03-30T06:51:13.962Z,54.30
2019-03-30T06:53:46.629Z,44.53
2019-03-30T06:56:19.004Z,43.63
2019-03-30T06:58:52.395Z,41.23
2019-03-30T07:01:25.244Z,40.17
2019-03-30T07:03:57.470Z,41.80
2019-03-30T07:06:31.044Z,38.57
2019-03-30T07:09:05.331Z,34.80
2019-03-30T07:11:42.585Z,38.03
2019-03-30T07:14:14.169Z,39.73
2019-03-30T07:16:48.964Z,41.43
2019-03-30T07:19:26.611Z,34.77
2019-03-30T07:22:02.459Z,35.33
2019-03-30T07:24:34.641Z,41.37
2019-03-30T07:27:10.840Z,32.30
2019-03-30T07:29:42.194Z,36.47
2019-03-30T07:32:13.885Z,35.33
2019-03-30T07:34:45.726Z,41.97
2019-03-30T07:37:17.010Z,35.53
2019-03-30T07:39:48.477Z,31.83
2019-03-30T07:42:22.679Z,34.23
2019-03-30T07:44:54.574Z,35.73
2019-03-30T07:47:26.113Z,33.83
2019-03-30T07:50:00.510Z,32.13
2019-03-30T07:52:33.789Z,35.70
2019-03-30T07:55:05.312Z,32.13
2019-03-30T07:57:36.804Z,29.83
2019-03-30T08:00:08.485Z,29.57
2019-03-30T08:02:40.375Z,31.17
2019-03-30T08:05:12.594Z,32.70
2019-03-30T08:07:45.613Z,35.57
2019-03-30T08:10:19.711Z,36.20
2019-03-30T08:12:51.819Z,38.90
2019-03-30T08:15:24.930Z,29.07
2019-03-30T08:17:56.544Z,28.40
2019-03-30T08:20:31.094Z,34.33
2019-03-30T08:23:02.686Z,29.90
2019-03-30T08:25:36.001Z,31.83
2019-03-30T08:28:08.106Z,29.17
2019-03-30T08:30:39.536Z,29.47
2019-03-30T08:33:15.930Z,32.27
2019-03-30T08:35:48.876Z,32.00
2019-03-30T08:38:21.423Z,29.37
2019-03-30T08:40:53.129Z,31.10
2019-03-30T08:43:24.909Z,32.77
2019-03-30T08:45:57.405Z,32.53
2019-03-30T08:48:29.593Z,26.40
2019-03-30T08:51:01.439Z,30.70
2019-03-30T08:53:33.489Z,30.20
2019-03-30T08:56:10.651Z,35.53
2019-03-30T08:58:46.645Z,37.20
2019-03-30T09:01:18.694Z,31.07
2019-03-30T09:03:51.877Z,32.23
2019-03-30T09:06:24.714Z,32.07
2019-03-30T09:08:59.217Z,32.37
2019-03-30T09:11:32.729Z,30.13
2019-03-30T09:14:04.431Z,30.83
2019-03-30T09:16:40.305Z,31.17
2019-03-30T09:19:13.711Z,32.67
2019-03-30T09:21:46.500Z,28.43
2019-03-30T09:24:22.921Z,33.03
2019-03-30T09:26:55.216Z,31.80
2019-03-30T09:29:26.951Z,29.60
2019-03-30T09:32:13.843Z,31.07
2019-03-30T09:34:34.394Z,28.40
2019-03-30T09:37:07.840Z,27.50
2019-03-30T09:39:41.033Z,28.60
2019-03-30T09:42:25.647Z,29.70
2019-03-30T09:44:58.950Z,32.87
2019-03-30T09:47:40.313Z,27.30
2019-03-30T09:50:14.426Z,29.73
2019-03-30T09:52:49.473Z,28.63
2019-03-30T09:55:22.449Z,31.47
2019-03-30T09:57:54.595Z,31.67
2019-03-30T10:00:29.704Z,26.40
2019-03-30T10:03:13.099Z,28.90
2019-03-30T10:05:46.305Z,28.53
2019-03-30T10:08:23.574Z,31.37
2019-03-30T10:11:01.744Z,27.53
2019-03-30T10:13:34.439Z,25.60
2019-03-30T10:16:10.042Z,29.20
2019-03-30T10:19:02.001Z,30.97
2019-03-30T10:21:37.891Z,32.07
2019-03-30T10:25:01.121Z,26.27
2019-03-30T10:27:41.619Z,32.33
2019-03-30T10:30:55.728Z,28.97
2019-03-30T10:33:44.964Z,28.03
2019-03-30T10:36:27.189Z,26.17
2019-03-30T10:39:05.208Z,25.60
2019-03-30T10:41:46.547Z,29.33
2019-03-30T10:44:26.528Z,30.43
2019-03-30T10:47:00.117Z,26.77
2019-03-30T10:49:43.375Z,26.93
2019-03-30T10:52:25.416Z,24.80
2019-03-30T10:54:59.460Z,34.93
2019-03-30T10:57:31.899Z,25.10
2019-03-30T11:00:06.269Z,27.87
2019-03-30T11:02:42.336Z,29.57
2019-03-30T11:05:22.566Z,27.70
2019-03-30T11:08:02.272Z,22.57
2019-03-30T11:10:49.621Z,31.90
2019-03-30T11:13:29.762Z,30.73
2019-03-30T11:16:09.417Z,23.60
2019-03-30T11:18:46.594Z,29.37
2019-03-30T11:21:23.836Z,32.53
2019-03-30T11:23:55.915Z,24.93
2019-03-30T11:26:34.979Z,33.87
2019-03-30T11:29:06.837Z,26.63
2019-03-30T11:31:42.867Z,23.47
2019-03-30T11:34:18.625Z,28.70
2019-03-30T11:37:13.330Z,27.47
2019-03-30T11:40:01.389Z,32.97
2019-03-30T11:42:34.776Z,24.57
2019-03-30T11:45:12.210Z,24.67
2019-03-30T11:47:46.395Z,19.90
2019-03-30T11:50:46.138Z,22.17
2019-03-30T11:53:18.796Z,22.50
2019-03-30T11:55:50.566Z,20.87
2019-03-30T11:58:22.761Z,24.67
2019-03-30T12:01:01.000Z,21.43
2019-03-30T12:03:33.175Z,22.63
2019-03-30T12:06:07.902Z,21.30
2019-03-30T12:08:42.680Z,22.70
2019-03-30T12:11:15.020Z,22.90
2019-03-30T12:13:49.930Z,22.77
2019-03-30T12:16:21.565Z,27.00
2019-03-30T12:18:53.277Z,24.23
2019-03-30T12:21:25.453Z,24.27
2019-03-30T12:23:58.479Z,24.10
2019-03-30T12:26:32.641Z,22.67
2019-03-30T12:29:09.462Z,23.07
2019-03-30T12:31:46.074Z,25.43
2019-03-30T12:34:19.269Z,25.20
2019-03-30T12:36:51.012Z,21.57
2019-03-30T12:39:23.921Z,28.07
2019-03-30T12:41:59.362Z,30.20
2019-03-30T12:44:37.641Z,24.33
2019-03-30T12:47:24.620Z,25.07
2019-03-30T12:50:07.845Z,19.13
2019-03-30T12:52:41.905Z,23.73
2019-03-30T12:55:14.814Z,24.23
2019-03-30T12:57:51.524Z,24.50
2019-03-30T13:00:30.830Z,22.70
2019-03-30T13:03:06.189Z,24.53
2019-03-30T13:05:45.052Z,20.60
2019-03-30T13:08:25.745Z,23.43
2019-03-30T13:11:03.368Z,23.37
2019-03-30T13:13:42.856Z,21.80
2019-03-30T13:16:46.172Z,22.77
2019-03-30T13:19:25.071Z,22.33
2019-03-30T13:22:02.572Z,17.80
2019-03-30T13:24:55.581Z,22.97
2019-03-30T13:27:28.153Z,23.77
2019-03-30T13:30:04.456Z,19.57
2019-03-30T13:32:39.699Z,24.07
2019-03-30T13:35:15.143Z,23.73
2019-03-30T13:37:54.297Z,27.73
2019-03-30T13:40:27.475Z,22.20
2019-03-30T13:43:00.478Z,23.63
2019-03-30T13:45:33.689Z,23.70
2019-03-30T13:48:06.661Z,21.10
2019-03-30T13:50:44.149Z,15.30
2019-03-30T13:53:19.349Z,16.70
2019-03-30T13:55:55.942Z,25.53
2019-03-30T13:58:28.328Z,22.13
2019-03-30T14:01:00.498Z,24.47
2019-03-30T14:03:32.102Z,24.30
2019-03-30T14:06:05.212Z,19.33
2019-03-30T14:08:40.290Z,32.17
2019-03-30T14:11:18.611Z,23.33
2019-03-30T14:14:04.301Z,32.40
2019-03-30T14:16:37.876Z,27.87
2019-03-30T14:19:13.430Z,22.73
2019-03-30T14:21:49.083Z,25.70
2019-03-30T14:24:26.028Z,23.37
2019-03-30T14:27:16.898Z,24.70
2019-03-30T14:29:59.810Z,22.47
2019-03-30T14:32:35.263Z,16.90
2019-03-30T14:35:11.520Z,23.07
2019-03-30T14:38:03.021Z,22.60
2019-03-30T14:40:39.414Z,23.67
2019-03-30T14:43:18.296Z,23.13
2019-03-30T14:45:54.076Z,20.57
2019-03-30T14:48:30.942Z,18.40
2019-03-30T14:51:12.524Z,24.33
2019-03-30T14:53:50.292Z,21.53
2019-03-30T14:56:24.603Z,22.83
2019-03-30T14:59:10.087Z,23.50
2019-03-30T15:02:03.026Z,21.47
2019-03-30T15:04:36.399Z,18.87
2019-03-30T15:07:20.960Z,19.13
2019-03-30T15:09:54.397Z,20.10
2019-03-30T15:12:29.105Z,17.40
2019-03-30T15:15:02.821Z,20.73
2019-03-30T15:17:45.851Z,21.37
2019-03-30T15:20:21.072Z,20.53
2019-03-30T15:22:53.701Z,19.30
2019-03-30T15:25:31.461Z,22.47
2019-03-30T15:28:07.251Z,19.37
2019-03-30T15:30:39.961Z,16.60
2019-03-30T15:33:21.493Z,19.17
2019-03-30T15:35:54.901Z,22.17
2019-03-30T15:38:29.571Z,19.70
2019-03-30T15:41:02.183Z,16.50
2019-03-30T15:43:38.647Z,15.20
2019-03-30T15:46:14.535Z,20.77
2019-03-30T15:49:40.091Z,16.10
2019-03-30T15:52:24.421Z,20.10
2019-03-30T15:54:59.742Z,19.37
2019-03-30T15:57:34.861Z,18.27
2019-03-30T16:00:07.893Z,23.93
2019-03-30T16:02:39.811Z,15.90
2019-03-30T16:05:15.992Z,17.20
2019-03-30T16:10:42.662Z,17.70
2019-03-30T16:13:15.464Z,18.67
2019-03-30T16:15:47.657Z,17.53
2019-03-30T16:18:20.146Z,15.97
2019-03-30T16:20:53.122Z,18.87
2019-03-30T16:23:28.189Z,13.87
2019-03-30T16:26:04.671Z,18.50
2019-03-30T16:28:39.474Z,15.70
2019-03-30T16:31:12.790Z,15.43
2019-03-30T16:33:46.924Z,21.90
2019-03-30T16:36:22.219Z,20.63
2019-03-30T16:38:54.997Z,15.43
2019-03-30T16:41:28.951Z,16.87
2019-03-30T16:44:01.125Z,21.87
2019-03-30T16:46:35.388Z,18.23
2019-03-30T16:49:11.166Z,20.67
2019-03-30T16:51:42.988Z,15.47
2019-03-30T16:54:23.066Z,16.37
2019-03-30T16:56:55.757Z,21.90
2019-03-30T16:59:32.780Z,16.70
2019-03-30T17:02:07.704Z,21.43
2019-03-30T17:04:42.782Z,14.37
2019-03-30T17:07:18.873Z,16.30
2019-03-30T17:09:53.647Z,16.87
2019-03-30T17:12:29.218Z,15.43
2019-03-30T17:15:02.031Z,18.27
2019-03-30T17:17:35.612Z,18.07
2019-03-30T17:20:08.909Z,18.93
2019-03-30T17:22:46.486Z,17.77
2019-03-30T17:25:18.454Z,21.07
2019-03-30T17:27:58.129Z,23.30
2019-03-30T17:30:24.754Z,21.33
2019-03-30T17:33:00.834Z,16.20
2019-03-30T17:35:40.869Z,18.43
2019-03-30T17:38:31.693Z,19.83
2019-03-30T17:41:05.434Z,20.20
2019-03-30T17:43:38.191Z,21.23
2019-03-30T17:46:11.424Z,20.67
2019-03-30T17:48:44.603Z,19.43
2019-03-30T17:51:22.358Z,23.90
2019-03-30T17:53:58.482Z,21.37
2019-03-30T17:56:37.971Z,20.23
2019-03-30T17:59:10.165Z,26.40
2019-03-30T18:01:46.024Z,20.83
2019-03-30T18:04:21.471Z,23.20
2019-03-30T18:07:00.302Z,28.30
2019-03-30T18:09:37.243Z,30.83
2019-03-30T18:12:13.529Z,35.97
2019-03-30T18:15:03.694Z,29.90
2019-03-30T18:17:37.039Z,27.40
2019-03-30T18:20:09.119Z,29.50
2019-03-30T18:22:46.572Z,29.37
2019-03-30T18:25:21.081Z,29.00
2019-03-30T18:28:04.921Z,25.73
2019-03-30T18:30:38.298Z,24.27
2019-03-30T18:33:12.162Z,30.43
2019-03-30T18:35:50.175Z,30.77
2019-03-30T18:38:29.019Z,29.97
2019-03-30T18:41:18.645Z,24.17
2019-03-30T18:44:02.569Z,23.53
2019-03-30T18:46:36.582Z,28.83
2019-03-30T18:49:12.167Z,25.73
2019-03-30T18:51:54.786Z,33.10
2019-03-30T18:54:39.909Z,27.63
2019-03-30T18:57:17.615Z,25.83
2019-03-30T19:00:00.603Z,27.23
2019-03-30T19:02:31.719Z,25.00
2019-03-30T19:05:09.298Z,24.87
2019-03-30T19:07:43.732Z,25.20
2019-03-30T19:10:22.448Z,26.23
2019-03-30T19:12:55.622Z,32.00
2019-03-30T19:15:27.503Z,28.67
2019-03-30T19:18:00.082Z,56.90
2019-03-30T19:20:32.038Z,26.77
2019-03-30T19:23:05.304Z,30.47
2019-03-30T19:25:41.782Z,37.57
2019-03-30T19:28:14.890Z,29.67
2019-03-30T19:30:50.252Z,33.23
2019-03-30T19:33:21.935Z,31.47
2019-03-30T19:35:58.164Z,31.23
2019-03-30T19:38:30.444Z,23.80
2019-03-30T19:41:02.478Z,26.60
2019-03-30T19:43:36.692Z,27.13
2019-03-30T19:46:09.269Z,29.83
2019-03-30T19:48:45.661Z,25.87
2019-03-30T19:51:36.019Z,27.40
2019-03-30T19:54:07.860Z,27.97
2019-03-30T19:56:41.780Z,40.13
2019-03-30T19:59:18.819Z,35.10
2019-03-30T20:01:53.197Z,45.90
2019-03-30T20:04:25.330Z,53.37
2019-03-30T20:06:59.583Z,71.17
2019-03-30T20:09:43.004Z,53.93
2019-03-30T20:12:15.436Z,39.33
2019-03-30T20:14:51.737Z,59.80
2019-03-30T20:17:30.948Z,47.50
2019-03-30T20:20:19.089Z,37.47
2019-03-30T20:22:57.104Z,35.70
2019-03-30T20:25:34.982Z,33.60
2019-03-30T20:28:09.545Z,45.27
2019-03-30T20:30:41.390Z,33.38
2019-03-30T20:33:13.273Z,27.80
2019-03-30T20:35:54.122Z,33.13
2019-03-30T20:38:59.065Z,37.10
2019-03-30T20:41:46.662Z,32.07
2019-03-30T20:44:20.510Z,35.13
2019-03-30T20:46:58.363Z,29.03
2019-03-30T20:49:42.128Z,34.90
2019-03-30T20:52:21.310Z,33.47
2019-03-30T20:54:53.271Z,38.37
2019-03-30T20:57:36.818Z,33.23
2019-03-30T21:00:10.524Z,40.00
2019-03-30T21:02:42.789Z,68.50
2019-03-30T21:05:33.783Z,42.93
2019-03-30T21:08:06.619Z,43.17
2019-03-30T21:10:39.483Z,34.67
2019-03-30T21:13:13.278Z,43.17
2019-03-30T21:15:51.626Z,55.63
2019-03-30T21:18:24.034Z,41.53
2019-03-30T21:20:58.848Z,41.17
2019-03-30T21:23:30.278Z,50.20
2019-03-30T21:26:05.865Z,48.87
2019-03-30T21:28:38.267Z,51.43
2019-03-30T21:31:11.800Z,51.43
2019-03-30T21:33:45.218Z,44.53
2019-03-30T21:36:17.639Z,41.07
2019-03-30T21:38:56.115Z,48.87
2019-03-30T21:41:26.688Z,51.20
2019-03-30T21:44:00.818Z,62.00
2019-03-30T21:46:33.808Z,57.87
2019-03-30T21:49:05.673Z,76.00
2019-03-30T21:51:39.312Z,60.80
2019-03-30T21:54:13.954Z,59.17
2019-03-30T21:56:47.354Z,51.70
2019-03-30T21:59:21.395Z,68.83
2019-03-30T22:01:57.774Z,63.87
2019-03-30T22:04:29.386Z,61.20
2019-03-30T22:07:02.188Z,82.07
2019-03-30T22:09:38.434Z,59.63
2019-03-30T22:12:41.891Z,91.60
2019-03-30T22:15:20.000Z,64.67
2019-03-30T22:17:53.400Z,99.40
2019-03-30T22:20:25.880Z,78.00
2019-03-30T22:22:59.986Z,76.50
2019-03-30T22:25:32.375Z,91.53
2019-03-30T22:28:05.329Z,71.87
2019-03-30T22:30:37.670Z,105.33
2019-03-30T22:33:10.058Z,94.73
2019-03-30T22:35:44.004Z,93.73
2019-03-30T22:38:15.443Z,103.37
2019-03-30T22:40:50.578Z,115.33
2019-03-30T22:43:24.924Z,117.93
2019-03-30T22:45:59.179Z,104.43
2019-03-30T22:48:32.666Z,92.70
2019-03-30T22:51:07.651Z,110.37
2019-03-30T22:54:02.885Z,101.20
2019-03-30T22:56:36.474Z,89.83
2019-03-30T22:59:09.784Z,109.33
2019-03-30T23:01:43.281Z,118.13
2019-03-30T23:04:23.519Z,119.40
2019-03-30T23:06:55.772Z,103.27
2019-03-30T23:09:29.962Z,86.57
2019-03-30T23:12:03.220Z,81.83
2019-03-30T23:14:35.737Z,99.47
2019-03-30T23:17:10.795Z,94.20
2019-03-30T23:19:45.832Z,84.33
2019-03-30T23:22:20.679Z,101.87
2019-03-30T23:24:53.664Z,92.37
2019-03-30T23:27:29.105Z,88.23
2019-03-30T23:30:01.150Z,85.23
2019-03-30T23:32:32.996Z,91.47
2019-03-30T23:35:05.709Z,89.43
2019-03-30T23:37:57.043Z,100.63
2019-03-30T23:40:29.921Z,101.93
2019-03-30T23:43:01.378Z,95.93
2019-03-30T23:45:34.600Z,118.97
2019-03-30T23:48:08.830Z,120.27
2019-03-30T23:50:43.093Z,119.70
2019-03-30T23:53:18.824Z,116.50
2019-03-30T23:55:50.223Z,111.57
2019-03-30T23:58:22.727Z,110.80
